Time;durP1;ratioP1;P1;durP2;ratioP2;P2;SDS_P1;SDS_P2;PMS_P1;PMS_P2;Temp;Humidity;BMP_temperature;BMP_pressure;BME280_temperature;BME280_humidity;BME280_pressure;Samples;Min_cycle;Max_cycle;Signal;HPM_P1;HPM_P2
2022/08/13 00:02:31;;;;;;;;;9.33;9.00;;;;;28.10;23.92;100792.25;5116242;27;45596;-65
2022/08/13 00:04:59;;;;;;;;;9.33;8.33;;;;;28.03;24.18;100783.44;5102377;27;45519;-64
2022/08/13 00:07:26;;;;;;;;;8.33;7.00;;;;;27.91;23.48;100782.78;5109573;27;46121;-64
2022/08/13 00:09:51;;;;;;;;;5.33;5.33;;;;;28.04;24.25;100805.06;5111161;27;45511;-64
2022/08/13 00:15:15;;;;;;;;;5.67;5.33;;;;;27.92;24.55;100790.72;5109109;27;45875;-63
2022/08/13 00:17:42;;;;;;;;;7.00;7.00;;;;;27.93;24.00;100792.38;5105640;27;45832;-64
2022/08/13 00:20:10;;;;;;;;;7.67;6.33;;;;;27.87;24.18;100794.22;5097458;27;45564;-64
2022/08/13 00:22:35;;;;;;;;;7.00;7.00;;;;;27.33;24.44;100711.38;5105208;27;45445;-64
2022/08/13 00:25:05;;;;;;;;;6.33;6.33;;;;;27.86;23.69;100791.75;5105156;27;45379;-64
2022/08/13 00:27:30;;;;;;;;;8.33;8.33;;;;;27.85;24.33;100790.09;5098057;27;46874;-64
2022/08/13 00:29:56;;;;;;;;;10.33;9.00;;;;;27.69;24.24;100777.34;5105959;27;46805;-64
2022/08/13 00:32:26;;;;;;;;;7.00;7.00;;;;;27.29;24.23;100732.09;5118222;27;45487;-64
2022/08/13 00:34:52;;;;;;;;;7.00;7.00;;;;;27.71;24.16;100797.03;5114122;27;45443;-64
2022/08/13 00:37:18;;;;;;;;;6.00;6.00;;;;;27.69;24.41;100791.00;5117314;27;45771;-64
2022/08/13 00:39:43;;;;;;;;;8.00;6.00;;;;;27.61;24.42;100791.41;5104656;27;45451;-63
2022/08/13 00:42:09;;;;;;;;;5.67;5.67;;;;;27.58;24.30;100796.31;5111946;27;45379;-63
2022/08/13 00:44:34;;;;;;;;;6.00;6.00;;;;;27.57;24.49;100797.41;5098156;27;45239;-63
2022/08/13 00:49:47;;;;;;;;;5.33;5.00;;;;;27.52;25.06;100797.34;5109125;27;45584;-63
2022/08/13 00:52:12;;;;;;;;;6.00;6.00;;;;;27.10;24.85;100728.03;5100888;27;45469;-64
2022/08/13 00:54:40;;;;;;;;;7.00;7.00;;;;;27.46;25.02;100792.91;5118167;27;45202;-65
2022/08/13 00:57:07;;;;;;;;;8.33;8.00;;;;;27.47;25.06;100800.03;5102611;27;46670;-63
2022/08/13 00:59:34;;;;;;;;;8.33;7.67;;;;;27.44;24.97;100797.81;5098533;27;47090;-63
2022/08/13 01:02:01;;;;;;;;;8.67;8.00;;;;;27.41;25.34;100794.72;5106186;27;45334;-64
2022/08/13 01:04:28;;;;;;;;;10.33;7.00;;;;;27.38;25.17;100792.50;5116288;27;45311;-63
2022/08/13 01:06:56;;;;;;;;;8.00;7.67;;;;;27.33;25.26;100787.00;5106765;27;46552;-64
2022/08/13 01:09:21;;;;;;;;;6.33;6.33;;;;;27.36;25.54;100800.13;5109886;27;45346;-64
2022/08/13 01:11:47;;;;;;;;;10.00;7.67;;;;;27.25;24.88;100796.47;5103244;27;45640;-63
2022/08/13 01:14:14;;;;;;;;;8.33;8.33;;;;;27.25;25.42;100807.38;5107106;27;45752;-64
2022/08/13 01:16:40;;;;;;;;;6.00;6.00;;;;;27.10;25.53;100783.44;5111690;27;45853;-63
2022/08/13 01:19:09;;;;;;;;;8.00;8.00;;;;;27.19;25.42;100798.28;5108209;27;45579;-63
2022/08/13 01:21:42;;;;;;;;;6.67;6.67;;;;;27.11;25.60;100792.44;5109188;27;45634;-63
2022/08/13 01:24:12;;;;;;;;;4.67;4.67;;;;;27.16;25.69;100803.41;5115476;27;45447;-64
2022/08/13 01:26:39;;;;;;;;;9.00;7.33;;;;;27.02;25.73;100786.56;5102285;27;45969;-64
2022/08/13 01:29:09;;;;;;;;;7.00;7.00;;;;;26.93;25.96;100788.88;5105516;27;45603;-63
2022/08/13 01:31:35;;;;;;;;;7.33;6.67;;;;;26.52;26.03;100721.19;5107177;27;45434;-63
2022/08/13 01:34:03;;;;;;;;;4.00;4.00;;;;;26.87;25.85;100789.91;5107053;27;45514;-64
2022/08/13 01:36:30;;;;;;;;;6.67;6.67;;;;;26.91;26.06;100801.97;5109555;27;46692;-64
2022/08/13 01:39:01;;;;;;;;;8.00;7.00;;;;;26.80;26.40;100799.31;5101863;27;45570;-64
2022/08/13 01:41:28;;;;;;;;;6.00;6.00;;;;;26.74;26.53;100800.31;5106583;27;45385;-63
2022/08/13 01:44:00;;;;;;;;;7.00;7.00;;;;;26.69;26.34;100803.81;5097092;27;45508;-64
2022/08/13 01:46:26;;;;;;;;;7.00;7.00;;;;;26.58;26.37;100791.91;5109445;27;46686;-64
2022/08/13 01:51:37;;;;;;;;;10.67;10.33;;;;;26.53;26.47;100797.28;5110336;27;46646;-64
2022/08/13 01:54:04;;;;;;;;;7.00;7.00;;;;;26.51;26.79;100796.69;5096765;27;45395;-64
2022/08/13 01:56:31;;;;;;;;;5.67;5.67;;;;;26.46;27.00;100795.81;5101877;27;46475;-63
2022/08/13 01:58:59;;;;;;;;;6.67;6.67;;;;;26.43;26.74;100791.69;5105860;27;45127;-62
2022/08/13 02:01:26;;;;;;;;;7.00;6.00;;;;;26.42;27.05;100791.91;5108679;27;45250;-63
2022/08/13 02:03:56;;;;;;;;;8.00;7.00;;;;;25.76;27.00;100697.03;5097492;27;45356;-63
2022/08/13 02:06:30;;;;;;;;;8.00;8.00;;;;;26.35;26.71;100798.34;5106972;27;46868;-63
2022/08/13 02:08:59;;;;;;;;;8.00;8.00;;;;;26.38;27.19;100802.47;5098502;27;45315;-63
2022/08/13 02:11:26;;;;;;;;;5.67;5.67;;;;;26.42;26.60;100802.78;5102360;27;45485;-63
2022/08/13 02:13:54;;;;;;;;;6.67;6.33;;;;;26.38;27.08;100806.03;5116584;27;45488;-63
2022/08/13 02:16:20;;;;;;;;;8.00;7.00;;;;;26.35;27.12;100811.16;5110790;27;45652;-63
2022/08/13 02:18:45;;;;;;;;;5.33;4.33;;;;;26.30;27.04;100800.97;5103404;27;45758;-64
2022/08/13 02:21:11;;;;;;;;;6.00;4.33;;;;;26.34;26.83;100806.75;5113365;27;45352;-66
2022/08/13 02:23:37;;;;;;;;;8.00;8.00;;;;;26.32;27.17;100812.44;5111553;27;45573;-64
2022/08/13 02:26:06;;;;;;;;;7.00;7.00;;;;;26.29;27.12;100804.75;5108296;27;46727;-64
2022/08/13 02:28:39;;;;;;;;;6.67;6.67;;;;;26.03;27.32;100765.34;5102858;27;45510;-64
2022/08/13 02:31:07;;;;;;;;;9.00;8.00;;;;;26.21;27.05;100805.13;5106992;27;45606;-64
2022/08/13 02:33:37;;;;;;;;;7.00;7.00;;;;;26.12;27.10;100793.00;5114240;27;45433;-63
2022/08/13 02:36:08;;;;;;;;;8.00;7.00;;;;;26.08;27.24;100797.28;5104726;27;47570;-64
2022/08/13 02:38:34;;;;;;;;;6.00;6.00;;;;;26.15;27.36;100808.03;5098571;27;45448;-64
2022/08/13 02:43:46;;;;;;;;;4.33;4.33;;;;;26.13;27.40;100805.56;5105172;27;45524;-64
2022/08/13 02:46:11;;;;;;;;;9.00;8.00;;;;;26.10;26.91;100794.31;5095032;27;45668;-63
2022/08/13 02:48:37;;;;;;;;;4.67;3.33;;;;;26.11;27.04;100807.69;5100600;27;45571;-63
2022/08/13 02:51:02;;;;;;;;;6.00;6.00;;;;;26.14;26.98;100803.66;5111783;27;45327;-63
2022/08/13 02:53:29;;;;;;;;;6.33;6.33;;;;;26.15;26.96;100813.47;5101944;27;45497;-63
2022/08/13 02:55:55;;;;;;;;;5.00;5.00;;;;;26.08;27.02;100800.03;5118719;27;45727;-64
2022/08/13 02:58:20;;;;;;;;;5.67;4.67;;;;;25.89;27.16;100763.16;5111051;27;47582;-64
2022/08/13 03:00:49;;;;;;;;;7.00;5.67;;;;;26.14;27.04;100801.75;5100329;27;45462;-63
2022/08/13 03:03:16;;;;;;;;;6.00;6.00;;;;;26.03;27.11;100786.31;5110390;27;45581;-64
2022/08/13 03:05:42;;;;;;;;;5.00;5.00;;;;;26.18;26.95;100802.91;5107936;27;45775;-64
2022/08/13 03:08:08;;;;;;;;;7.33;6.00;;;;;25.74;27.14;100726.41;5106996;27;45270;-64
2022/08/13 03:10:33;;;;;;;;;5.00;5.00;;;;;25.69;27.13;100728.22;5111450;27;45210;-63
2022/08/13 03:13:04;;;;;;;;;7.67;6.67;;;;;26.16;26.88;100799.59;5108042;27;47007;-63
2022/08/13 03:15:31;;;;;;;;;4.67;4.67;;;;;26.12;26.89;100794.91;5116282;27;46713;-63
2022/08/13 03:17:56;;;;;;;;;5.00;5.00;;;;;26.07;26.91;100791.03;5090569;27;45485;-63
2022/08/13 03:20:21;;;;;;;;;5.00;5.00;;;;;25.96;27.03;100761.94;5100913;27;58027;-64
2022/08/13 03:22:56;;;;;;;;;5.00;5.00;;;;;26.11;27.37;100796.81;5100150;27;45491;-63
2022/08/13 03:25:24;;;;;;;;;5.33;5.33;;;;;26.10;27.33;100800.59;5105863;27;46445;-63
2022/08/13 03:27:50;;;;;;;;;7.00;6.00;;;;;25.90;27.77;100781.97;5106567;27;45540;-63
2022/08/13 03:30:17;;;;;;;;;6.00;6.00;;;;;25.10;27.29;100657.66;5110078;27;45188;-63
2022/08/13 03:32:45;;;;;;;;;10.67;7.00;;;;;25.95;27.47;100795.69;5099999;27;46036;-64
2022/08/13 03:35:20;;;;;;;;;6.00;6.00;;;;;25.94;27.55;100796.75;5098737;27;48390;-63
2022/08/13 03:37:48;;;;;;;;;5.00;5.00;;;;;24.93;27.73;100655.88;5106449;27;45569;-62
2022/08/13 03:40:16;;;;;;;;;6.67;6.67;;;;;25.78;27.52;100795.63;5111955;27;45421;-64
2022/08/13 03:42:43;;;;;;;;;7.33;6.33;;;;;25.72;27.97;100793.91;5099969;27;45366;-63
2022/08/13 03:45:10;;;;;;;;;9.00;7.67;;;;;25.69;27.96;100799.84;5101532;27;45786;-64
2022/08/13 03:47:38;;;;;;;;;4.00;4.00;;;;;25.49;28.17;100766.72;5105878;27;45765;-65
2022/08/13 03:50:06;;;;;;;;;7.33;5.67;;;;;25.60;27.78;100800.41;5109118;27;45391;-63
2022/08/13 03:52:33;;;;;;;;;7.67;7.67;;;;;24.56;28.05;100640.72;5102453;27;45591;-63
2022/08/13 03:54:59;;;;;;;;;8.00;7.67;;;;;25.58;28.46;100806.09;5102658;27;47326;-64
2022/08/13 03:57:24;;;;;;;;;7.00;7.00;;;;;25.57;27.86;100807.16;5104073;27;45450;-64
2022/08/13 03:59:50;;;;;;;;;6.00;6.00;;;;;25.38;28.18;100776.56;5108646;27;45228;-64
2022/08/13 04:02:16;;;;;;;;;10.00;8.00;;;;;25.50;28.35;100806.50;5117270;27;45634;-63
2022/08/13 04:04:46;;;;;;;;;9.67;7.00;;;;;25.51;28.08;100810.03;5111107;27;47511;-70
2022/08/13 04:07:16;;;;;;;;;6.00;6.00;;;;;25.44;28.44;100802.03;5107905;27;45430;-64
2022/08/13 04:09:43;;;;;;;;;6.33;6.00;;;;;25.41;28.54;100803.31;5110122;27;45902;-63
2022/08/13 04:12:11;;;;;;;;;6.00;6.00;;;;;25.26;28.25;100778.50;5117503;27;45271;-63
2022/08/13 04:14:39;;;;;;;;;6.67;6.67;;;;;25.38;28.66;100794.78;5115413;27;47666;-67
2022/08/13 04:17:05;;;;;;;;;6.33;4.67;;;;;25.40;28.66;100803.53;5099932;27;46156;-64
2022/08/13 04:19:32;;;;;;;;;5.67;5.33;;;;;25.32;28.26;100812.09;5113878;27;46086;-63
2022/08/13 04:21:57;;;;;;;;;6.67;6.67;;;;;25.26;28.84;100792.13;5099476;27;45247;-64
2022/08/13 04:24:23;;;;;;;;;5.00;5.00;;;;;25.26;28.67;100804.91;5112771;27;46859;-66
2022/08/13 04:26:48;;;;;;;;;7.33;7.33;;;;;24.84;28.51;100731.59;5103000;27;45546;-63
2022/08/13 04:29:13;;;;;;;;;6.00;6.00;;;;;24.74;28.62;100731.34;5104338;27;45465;-63
2022/08/13 04:31:39;;;;;;;;;7.00;6.00;;;;;25.27;28.76;100814.72;5098757;27;46088;-75
2022/08/13 04:34:05;;;;;;;;;6.33;6.33;;;;;25.17;28.53;100797.09;5102574;27;45769;-67
2022/08/13 04:36:30;;;;;;;;;6.33;6.33;;;;;25.10;29.09;100788.22;5103899;27;45706;-63
2022/08/13 04:38:56;;;;;;;;;6.00;6.00;;;;;25.22;29.03;100807.25;5113120;27;45454;-63
2022/08/13 04:41:21;;;;;;;;;6.67;6.67;;;;;25.16;28.49;100795.44;5116691;27;45561;-63
2022/08/13 04:43:47;;;;;;;;;9.00;7.33;;;;;24.82;28.68;100741.84;5109834;27;45732;-64
2022/08/13 04:46:12;;;;;;;;;9.67;6.00;;;;;25.23;28.90;100802.63;5098685;27;45238;-64
2022/08/13 04:48:37;;;;;;;;;8.00;5.67;;;;;25.12;29.06;100798.88;5108139;27;45629;-63
2022/08/13 04:51:05;;;;;;;;;8.33;7.00;;;;;25.12;29.34;100807.84;5109325;27;45519;-62
2022/08/13 04:53:32;;;;;;;;;7.00;7.00;;;;;25.07;29.26;100807.75;5103065;27;46804;-65
2022/08/13 04:56:00;;;;;;;;;6.00;6.00;;;;;25.07;29.24;100802.31;5109983;27;45554;-62
2022/08/13 04:58:32;;;;;;;;;8.00;7.00;;;;;24.97;29.65;100790.34;5109202;27;45678;-63
2022/08/13 05:01:08;;;;;;;;;6.00;5.33;;;;;24.99;29.67;100799.94;5099439;27;46451;-62
2022/08/13 05:03:37;;;;;;;;;6.00;6.00;;;;;24.98;29.24;100802.88;5104917;27;45603;-63
2022/08/13 05:06:02;;;;;;;;;3.67;3.67;;;;;25.00;29.38;100806.19;5104377;27;45560;-64
2022/08/13 05:08:31;;;;;;;;;5.33;5.33;;;;;25.03;29.26;100812.03;5105827;27;45477;-63
2022/08/13 05:10:56;;;;;;;;;8.00;6.67;;;;;25.04;28.90;100802.78;5104920;27;45537;-68
2022/08/13 05:13:27;;;;;;;;;6.00;6.00;;;;;25.10;29.40;100807.28;5110993;27;48766;-64
2022/08/13 05:15:55;;;;;;;;;7.00;6.00;;;;;25.12;29.20;100813.31;5111708;27;45453;-63
2022/08/13 05:18:21;;;;;;;;;8.33;6.33;;;;;25.07;29.27;100812.38;5113019;27;45355;-63
2022/08/13 05:20:46;;;;;;;;;6.00;6.00;;;;;25.01;29.38;100805.13;5114034;27;45403;-63
2022/08/13 05:23:15;;;;;;;;;7.00;7.00;;;;;25.05;29.20;100818.06;5114040;27;46582;-64
2022/08/13 05:25:42;;;;;;;;;5.00;5.00;;;;;25.03;29.10;100801.16;5097337;27;45343;-64
2022/08/13 05:28:08;;;;;;;;;6.00;5.33;;;;;25.11;29.22;100811.66;5100841;27;45390;-63
2022/08/13 05:30:38;;;;;;;;;6.33;5.33;;;;;25.05;29.38;100803.63;5115127;27;45533;-64
2022/08/13 05:33:25;;;;;;;;;5.00;5.00;;;;;25.06;29.52;100816.97;5097813;27;45657;-64
2022/08/13 05:35:53;;;;;;;;;4.67;4.67;;;;;25.06;29.71;100811.53;5107940;27;45421;-64
2022/08/13 05:38:23;;;;;;;;;8.33;7.67;;;;;25.05;29.78;100823.50;5100347;27;45370;-64
2022/08/13 05:40:53;;;;;;;;;4.00;4.00;;;;;25.06;29.65;100816.97;5105143;27;45350;-63
2022/08/13 05:43:21;;;;;;;;;5.67;5.67;;;;;25.06;29.12;100813.44;5099713;27;47646;-63
2022/08/13 05:45:49;;;;;;;;;7.00;6.00;;;;;25.13;29.56;100825.84;5117060;27;45466;-63
2022/08/13 05:48:14;;;;;;;;;4.00;3.00;;;;;25.15;29.72;100822.88;5116264;27;45558;-64
2022/08/13 05:50:42;;;;;;;;;6.00;6.00;;;;;25.11;29.19;100808.09;5109524;27;45251;-63
2022/08/13 05:53:10;;;;;;;;;5.67;5.67;;;;;25.28;29.40;100819.09;5097155;27;46517;-64
2022/08/13 05:55:37;;;;;;;;;5.00;5.00;;;;;25.19;29.25;100807.72;5102643;27;45459;-63
2022/08/13 05:58:04;;;;;;;;;7.33;7.33;;;;;25.23;29.22;100819.81;5111297;27;45457;-64
2022/08/13 06:03:25;;;;;;;;;7.33;7.33;;;;;25.04;29.56;100794.63;5117764;27;45466;-65
2022/08/13 06:05:58;;;;;;;;;7.00;6.67;;;;;25.24;29.81;100828.81;5105333;27;45556;-63
2022/08/13 06:08:30;;;;;;;;;4.33;4.33;;;;;25.16;29.82;100806.31;5106221;27;45738;-63
2022/08/13 06:11:00;;;;;;;;;7.67;6.33;;;;;25.24;29.68;100804.31;5112536;27;45389;-65
2022/08/13 06:13:28;;;;;;;;;6.00;6.00;;;;;25.33;29.36;100827.34;5106347;27;47615;-73
2022/08/13 06:16:00;;;;;;;;;7.00;5.00;;;;;25.40;29.94;100830.75;5102236;27;45534;-61
2022/08/13 06:18:35;;;;;;;;;7.67;6.00;;;;;25.43;29.72;100822.16;5110043;27;45581;-63
2022/08/13 06:21:03;;;;;;;;;6.00;6.00;;;;;25.47;29.44;100829.59;5111364;27;46127;-62
2022/08/13 06:23:30;;;;;;;;;7.00;5.67;;;;;25.52;29.75;100830.75;5102622;27;47974;-62
2022/08/13 06:25:57;;;;;;;;;7.00;6.00;;;;;25.58;29.66;100819.72;5107385;27;45384;-63
2022/08/13 06:28:28;;;;;;;;;5.67;5.00;;;;;25.82;29.66;100825.09;5116308;27;45398;-63
2022/08/13 06:30:55;;;;;;;;;5.33;5.00;;;;;26.18;29.09;100819.25;5118266;27;45445;-63
2022/08/13 06:33:21;;;;;;;;;6.00;6.00;;;;;26.73;28.63;100820.50;5118867;27;46271;-64
2022/08/13 06:35:52;;;;;;;;;6.67;5.33;;;;;26.88;27.80;100772.44;5119368;27;45471;-63
2022/08/13 06:38:22;;;;;;;;;5.33;5.33;;;;;27.91;26.44;100816.41;5109001;27;45631;-64
2022/08/13 06:40:48;;;;;;;;;6.67;6.67;;;;;28.68;26.06;100821.50;5101547;27;45447;-64
2022/08/13 06:43:17;;;;;;;;;5.00;5.00;;;;;29.52;25.00;100828.09;5106761;27;45924;-64
2022/08/13 06:45:42;;;;;;;;;5.00;5.00;;;;;30.42;23.83;100826.66;5117193;27;45634;-62
2022/08/13 06:48:09;;;;;;;;;7.33;6.00;;;;;31.17;22.97;100800.28;5121017;27;45562;-64
2022/08/13 06:50:35;;;;;;;;;7.67;6.00;;;;;32.01;21.83;100800.44;5115332;27;45423;-63
2022/08/13 06:53:06;;;;;;;;;6.00;6.00;;;;;32.58;21.25;100820.94;5099919;27;46561;-63
2022/08/13 06:55:36;;;;;;;;;5.00;5.00;;;;;32.49;20.75;100740.09;5100605;27;45323;-65
2022/08/13 06:58:04;;;;;;;;;3.33;3.33;;;;;33.26;19.80;100805.13;5100039;27;45507;-64
2022/08/13 07:00:30;;;;;;;;;6.33;6.33;;;;;33.56;20.19;100806.69;5100740;27;45484;-64
2022/08/13 07:02:58;;;;;;;;;6.00;5.00;;;;;34.15;19.39;100813.59;5098925;27;47662;-64
2022/08/13 07:05:38;;;;;;;;;5.00;5.00;;;;;34.64;18.62;100823.31;5100233;27;45597;-64
2022/08/13 07:08:06;;;;;;;;;7.00;5.67;;;;;34.86;18.37;100825.44;5100167;27;45203;-63
2022/08/13 07:10:33;;;;;;;;;5.67;5.67;;;;;34.77;18.20;100767.25;5098699;27;45952;-64
2022/08/13 07:13:00;;;;;;;;;7.33;6.33;;;;;35.30;17.85;100788.91;5100989;27;45790;-64
2022/08/13 07:15:26;;;;;;;;;5.00;5.00;;;;;36.10;18.51;100833.69;5118601;27;45396;-65
2022/08/13 07:17:55;;;;;;;;;7.67;6.00;;;;;36.66;17.05;100810.16;5100511;27;45448;-64
2022/08/13 07:20:20;;;;;;;;;8.00;5.00;;;;;37.24;16.52;100836.84;5103310;27;45496;-64
2022/08/13 07:22:46;;;;;;;;;5.00;5.00;;;;;37.27;16.41;100781.63;5100186;27;46273;-65
2022/08/13 07:25:11;;;;;;;;;8.33;8.00;;;;;38.13;16.33;100836.41;5117428;27;45433;-65
2022/08/13 07:27:39;;;;;;;;;6.67;6.00;;;;;38.59;15.45;100837.69;5107617;27;45359;-66
2022/08/13 07:30:05;;;;;;;;;6.67;6.67;;;;;39.07;14.95;100831.91;5111915;27;45244;-65
2022/08/13 07:32:36;;;;;;;;;6.00;6.00;;;;;39.40;14.56;100823.69;5113454;27;46502;-64
2022/08/13 07:35:02;;;;;;;;;5.00;5.00;;;;;39.60;13.68;100824.09;5100591;27;45481;-66
2022/08/13 07:37:28;;;;;;;;;6.67;6.00;;;;;39.65;14.36;100830.31;5113950;27;45338;-65
2022/08/13 07:39:53;;;;;;;;;7.00;7.00;;;;;39.80;13.81;100832.47;5105195;27;45658;-64
2022/08/13 07:42:21;;;;;;;;;3.00;3.00;;;;;40.11;14.10;100843.22;5114328;27;48187;-64
2022/08/13 07:44:52;;;;;;;;;6.00;6.00;;;;;40.59;13.78;100841.00;5107004;27;45707;-64
2022/08/13 07:47:19;;;;;;;;;5.00;5.00;;;;;41.01;13.68;100811.00;5111947;27;45459;-64
2022/08/13 07:49:45;;;;;;;;;6.00;6.00;;;;;41.45;13.49;100828.84;5111877;27;45563;-64
2022/08/13 07:52:12;;;;;;;;;4.00;4.00;;;;;41.63;12.97;100832.16;5111595;27;46556;-64
2022/08/13 07:54:39;;;;;;;;;5.67;5.67;;;;;41.58;12.99;100774.59;5100643;27;45424;-64
2022/08/13 07:57:05;;;;;;;;;6.00;6.00;;;;;41.91;12.91;100827.47;5100383;27;45510;-65
2022/08/13 07:59:31;;;;;;;;;8.00;6.33;;;;;41.75;12.69;100826.59;5103420;27;45461;-65
2022/08/13 08:01:57;;;;;;;;;5.67;5.67;;;;;41.84;13.11;100834.81;5094954;27;45832;-65
2022/08/13 08:04:24;;;;;;;;;5.33;5.33;;;;;41.74;12.58;100827.75;5115474;27;45872;-74
2022/08/13 08:06:50;;;;;;;;;5.00;5.00;;;;;41.87;12.15;100839.72;5104182;27;45495;-66
2022/08/13 08:09:16;;;;;;;;;5.33;5.33;;;;;41.85;12.62;100826.13;5110952;27;45582;-71
2022/08/13 08:14:27;;;;;;;;;3.00;3.00;;;;;41.54;12.44;100756.94;5103317;27;45649;-64
2022/08/13 08:16:53;;;;;;;;;5.67;5.00;;;;;42.21;12.29;100824.34;5119694;27;45341;-64
2022/08/13 08:19:20;;;;;;;;;5.00;5.00;;;;;42.21;12.23;100839.16;5115573;27;45661;-65
2022/08/13 08:21:47;;;;;;;;;4.00;3.67;;;;;42.16;13.04;100838.59;5114267;27;46212;-64
2022/08/13 08:24:15;;;;;;;;;4.00;4.00;;;;;42.23;12.18;100819.22;5098442;27;45731;-66
2022/08/13 08:26:46;;;;;;;;;3.00;3.00;;;;;41.63;12.14;100784.69;5111383;27;45495;-64
2022/08/13 08:29:11;;;;;;;;;4.00;4.00;;;;;41.70;13.02;100798.94;5114807;27;45504;-66
2022/08/13 08:31:41;;;;;;;;;4.67;3.67;;;;;41.68;12.13;100831.16;5101463;27;46300;-63
2022/08/13 08:34:08;;;;;;;;;3.67;3.67;;;;;40.84;12.53;100710.84;5101952;27;45427;-62
2022/08/13 08:36:37;;;;;;;;;2.67;2.67;;;;;41.40;12.11;100836.59;5102144;27;45219;-63
2022/08/13 08:44:38;;;;;;;;;3.00;3.00;;;;;40.67;12.70;100765.66;5099254;27;45214;-64
2022/08/13 08:47:05;;;;;;;;;4.33;4.00;;;;;41.13;12.70;100833.34;5104349;27;45442;-64
2022/08/13 08:49:30;;;;;;;;;5.67;4.67;;;;;41.62;12.17;100855.66;5115232;27;45745;-66
2022/08/13 08:51:57;;;;;;;;;3.67;3.67;;;;;41.85;12.36;100842.88;5105518;27;46926;-63
2022/08/13 08:54:23;;;;;;;;;4.00;4.00;;;;;41.90;12.11;100845.41;5103174;27;45623;-68
2022/08/13 08:56:54;;;;;;;;;4.33;4.33;;;;;41.60;12.02;100768.66;5102432;27;45619;-65
2022/08/13 08:59:20;;;;;;;;;4.00;4.00;;;;;42.09;11.72;100849.56;5099130;27;45276;-64
2022/08/13 09:01:45;;;;;;;;;3.00;3.00;;;;;41.86;12.21;100838.91;5108645;27;46782;-68
2022/08/13 09:04:13;;;;;;;;;5.33;4.00;;;;;41.97;11.94;100839.22;5113403;27;47367;-66
2022/08/13 09:06:40;;;;;;;;;3.00;3.00;;;;;41.85;12.37;100839.22;5118213;27;45381;-65
2022/08/13 09:09:08;;;;;;;;;4.00;4.00;;;;;41.87;12.04;100832.16;5112552;27;45417;-66
2022/08/13 09:11:36;;;;;;;;;2.33;1.33;;;;;41.88;12.20;100841.34;5113902;27;45681;-66
2022/08/13 09:14:08;;;;;;;;;3.00;3.00;;;;;42.29;11.57;100845.75;5107578;27;45430;-73
2022/08/13 09:16:37;;;;;;;;;3.00;3.00;;;;;42.78;11.11;100839.91;5126265;27;45586;-65
2022/08/13 09:19:03;;;;;;;;;5.33;3.33;;;;;42.70;10.95;100788.59;5112535;27;45502;-66
2022/08/13 09:21:29;;;;;;;;;4.00;4.00;;;;;43.25;10.78;100819.53;5102722;27;46840;-67
2022/08/13 09:23:55;;;;;;;;;3.67;3.67;;;;;43.91;10.35;100811.09;5110886;27;45467;-68
2022/08/13 09:26:22;;;;;;;;;4.00;4.00;;;;;44.45;9.87;100767.31;5111468;27;45490;-67
2022/08/13 09:28:55;;;;;;;;;4.00;4.00;;;;;45.91;9.10;100825.81;5105245;27;45518;-66
2022/08/13 09:31:20;;;;;;;;;0.33;0.33;;;;;47.01;8.52;100831.81;5107378;27;46950;-68
2022/08/13 09:33:45;;;;;;;;;2.00;2.00;;;;;47.91;8.32;100831.25;5110073;27;45562;-68
2022/08/13 09:36:11;;;;;;;;;3.00;3.00;;;;;48.35;7.67;100834.66;5105274;27;45339;-67
2022/08/13 09:38:37;;;;;;;;;4.67;4.67;;;;;48.84;8.24;100830.28;5097656;27;45199;-67
2022/08/13 09:41:27;;;;;;;;;3.00;3.00;;;;;49.47;7.13;100825.03;5107474;27;46557;-67
2022/08/13 09:43:55;;;;;;;;;2.00;2.00;;;;;50.12;6.47;100837.75;5100436;27;45335;-66
2022/08/13 09:46:23;;;;;;;;;4.00;4.00;;;;;50.39;6.53;100785.06;5107729;27;45513;-66
2022/08/13 09:48:52;;;;;;;;;2.00;2.00;;;;;51.07;6.11;100832.66;5116213;27;45614;-66
2022/08/13 09:51:19;;;;;;;;;2.00;2.00;;;;;51.74;6.30;100836.03;5101825;27;48518;-67
2022/08/13 09:53:47;;;;;;;;;3.00;3.00;;;;;52.09;5.57;100832.75;5095868;27;45311;-67
2022/08/13 09:56:17;;;;;;;;;1.75;1.75;;;;;51.95;5.56;100764.84;5109429;27;45255;-67
2022/08/13 09:58:49;;;;;;;;;2.00;2.00;;;;;51.83;5.65;100824.97;5116715;27;45479;-67
2022/08/13 10:01:15;;;;;;;;;3.00;2.00;;;;;51.23;5.91;100821.56;5096754;27;47695;-68
2022/08/13 10:03:41;;;;;;;;;4.00;3.25;;;;;51.07;6.09;100810.00;5103782;27;45683;-66
2022/08/13 10:06:07;;;;;;;;;2.75;1.75;;;;;50.31;6.00;100743.88;5108794;27;45614;-67
2022/08/13 10:08:34;;;;;;;;;2.00;2.00;;;;;50.27;5.84;100822.31;5104889;27;45442;-66
2022/08/13 10:11:00;;;;;;;;;3.00;3.00;;;;;49.69;6.18;100818.13;5109112;27;47839;-67
2022/08/13 10:13:26;;;;;;;;;6.00;3.67;;;;;48.35;6.76;100741.56;5109180;27;45442;-68
2022/08/13 10:15:51;;;;;;;;;2.67;2.67;;;;;47.27;7.76;100809.16;5106740;27;45417;-66
2022/08/13 10:18:17;;;;;;;;;3.00;3.00;;;;;45.74;8.30;100813.16;5107106;27;45277;-67
2022/08/13 10:20:48;;;;;;;;;3.00;2.67;;;;;44.23;9.33;100813.75;5101816;27;46663;-68
2022/08/13 10:23:16;;;;;;;;;2.00;2.00;;;;;42.79;10.09;100794.00;5108473;27;45497;-66
2022/08/13 10:25:43;;;;;;;;;4.33;4.33;;;;;41.73;10.44;100812.16;5104981;27;45294;-66
2022/08/13 10:28:18;;;;;;;;;2.00;2.00;;;;;40.60;10.92;100810.00;5108452;27;45561;-67
2022/08/13 10:30:44;;;;;;;;;3.33;3.33;;;;;39.76;12.12;100811.22;5110672;27;47349;-68
2022/08/13 10:33:12;;;;;;;;;3.00;3.00;;;;;38.73;12.21;100777.22;5095795;27;45548;-66
2022/08/13 10:35:38;;;;;;;;;2.00;2.00;;;;;38.43;12.27;100806.03;5106725;27;45668;-67
2022/08/13 10:38:05;;;;;;;;;3.00;2.67;;;;;37.54;13.82;100796.34;5109601;27;45479;-68
2022/08/13 10:40:30;;;;;;;;;4.00;4.00;;;;;36.91;13.92;100812.28;5098866;27;48793;-67
2022/08/13 10:42:56;;;;;;;;;3.00;3.00;;;;;36.52;14.34;100816.59;5109712;27;45626;-66
2022/08/13 10:45:24;;;;;;;;;4.00;2.67;;;;;35.74;15.04;100778.31;5111547;27;45514;-67
2022/08/13 10:47:57;;;;;;;;;3.00;3.00;;;;;34.96;15.86;100747.88;5109391;27;45191;-67
2022/08/13 10:50:29;;;;;;;;;4.00;4.00;;;;;34.53;15.61;100705.06;5106323;27;45454;-66
2022/08/13 10:52:58;;;;;;;;;4.00;3.33;;;;;34.80;16.27;100776.06;5098280;27;45307;-65
2022/08/13 10:55:24;;;;;;;;;3.00;3.00;;;;;34.58;16.12;100799.66;5112707;27;45636;-65
2022/08/13 10:57:50;;;;;;;;;4.00;4.00;;;;;34.05;16.55;100775.13;5112669;27;45520;-65
2022/08/13 11:00:22;;;;;;;;;4.00;4.00;;;;;33.46;16.90;100732.41;5108920;27;46421;-70
2022/08/13 11:02:50;;;;;;;;;5.00;5.00;;;;;33.74;17.02;100787.69;5097618;27;45202;-64
2022/08/13 11:05:17;;;;;;;;;4.67;4.67;;;;;33.58;17.66;100784.34;5105351;27;45516;-64
2022/08/13 11:07:45;;;;;;;;;5.00;5.00;;;;;33.29;17.36;100792.69;5110007;27;46964;-65
2022/08/13 11:10:12;;;;;;;;;4.33;4.33;;;;;33.16;18.18;100757.56;5096703;27;46006;-67
2022/08/13 11:12:37;;;;;;;;;4.00;4.00;;;;;33.26;17.74;100783.06;5105575;27;46484;-65
2022/08/13 11:15:07;;;;;;;;;4.67;4.67;;;;;33.09;18.31;100770.88;5118791;27;45616;-66
2022/08/13 11:17:33;;;;;;;;;4.00;4.00;;;;;33.15;17.73;100787.06;5121134;27;45324;-66
2022/08/13 11:20:03;;;;;;;;;4.00;4.00;;;;;33.10;17.74;100775.28;5119502;27;45601;-72
2022/08/13 11:22:29;;;;;;;;;3.33;3.33;;;;;31.68;17.62;100543.63;5115399;27;45470;-67
2022/08/13 11:24:56;;;;;;;;;5.00;5.00;;;;;32.92;18.35;100776.84;5108604;27;45505;-66
2022/08/13 11:27:22;;;;;;;;;5.00;3.33;;;;;32.53;17.93;100725.47;5118527;27;45586;-66
2022/08/13 11:29:47;;;;;;;;;4.33;3.33;;;;;32.76;17.93;100781.66;5107818;27;45893;-66
2022/08/13 11:32:12;;;;;;;;;4.00;4.00;;;;;32.78;18.05;100778.63;5100004;27;45516;-66
2022/08/13 11:34:38;;;;;;;;;5.33;5.33;;;;;32.62;19.01;100733.91;5103783;27;45480;-66
2022/08/13 11:37:03;;;;;;;;;2.00;2.00;;;;;32.92;18.11;100768.59;5110654;27;45370;-70
2022/08/13 11:39:32;;;;;;;;;4.00;4.00;;;;;32.98;17.65;100770.16;5113608;27;45924;-71
2022/08/13 11:41:57;;;;;;;;;5.00;5.00;;;;;32.77;17.25;100733.75;5101511;27;45251;-65
2022/08/13 11:44:23;;;;;;;;;4.00;4.00;;;;;32.38;17.72;100687.09;5109504;27;45523;-65
2022/08/13 11:46:48;;;;;;;;;4.00;3.00;;;;;32.70;17.66;100763.56;5118246;27;45782;-66
2022/08/13 11:49:13;;;;;;;;;3.67;3.67;;;;;32.45;18.02;100731.63;5102999;27;45520;-69
2022/08/13 11:51:39;;;;;;;;;2.67;2.67;;;;;32.65;17.75;100766.38;5101702;27;45710;-65